createdAt,value
2023-01-29T00:01:59.153Z,73.98
2023-01-29T00:05:45.900Z,73.96
2023-01-29T00:15:28.343Z,74.71
2023-01-29T00:18:32.467Z,74.06
2023-01-29T00:21:03.925Z,73.80
2023-01-29T00:23:48.635Z,73.47
2023-01-29T00:26:30.115Z,73.78
2023-01-29T00:29:16.424Z,74.20
2023-01-29T00:31:53.877Z,74.28
2023-01-29T00:34:46.385Z,74.79
2023-01-29T00:37:36.333Z,73.94
2023-01-29T00:40:09.444Z,74.88
2023-01-29T00:43:05.221Z,74.70
2023-01-29T00:45:40.287Z,74.75
2023-01-29T00:48:18.979Z,74.74
2023-01-29T00:50:53.468Z,74.14
2023-01-29T00:53:20.336Z,74.72
2023-01-29T00:55:51.747Z,74.58
2023-01-29T00:58:28.557Z,74.90
2023-01-29T01:04:24.304Z,74.60
2023-01-29T01:10:18.466Z,74.31
2023-01-29T01:12:51.070Z,74.25
2023-01-29T01:15:20.385Z,75.07
2023-01-29T01:17:49.021Z,75.13
2023-01-29T01:20:18.792Z,74.30
2023-01-29T01:25:44.818Z,74.74
2023-01-29T01:28:18.436Z,75.03
2023-01-29T01:30:49.628Z,74.88
2023-01-29T01:33:19.801Z,75.14
2023-01-29T01:35:54.092Z,74.89
2023-01-29T01:38:21.015Z,74.87
2023-01-29T01:40:51.525Z,75.21
2023-01-29T01:43:19.552Z,75.11
2023-01-29T01:45:53.044Z,74.96
2023-01-29T01:48:28.053Z,75.15
2023-01-29T01:51:08.979Z,74.90
2023-01-29T01:54:07.109Z,76.01
2023-01-29T01:56:46.291Z,74.71
2023-01-29T01:59:22.531Z,75.54
2023-01-29T02:01:56.396Z,75.31
2023-01-29T02:04:47.493Z,74.76
2023-01-29T02:07:37.169Z,75.46
2023-01-29T02:10:10.340Z,75.12
2023-01-29T02:12:39.239Z,75.37
2023-01-29T02:15:14.351Z,75.20
2023-01-29T02:18:04.857Z,74.90
2023-01-29T02:20:35.862Z,75.12
2023-01-29T02:23:40.043Z,75.77
2023-01-29T02:26:28.675Z,75.81
2023-01-29T02:29:22.939Z,75.00
2023-01-29T02:33:23.174Z,75.48
2023-01-29T02:42:34.711Z,75.78
2023-01-29T02:45:44.281Z,75.43
2023-01-29T02:48:44.521Z,75.29
2023-01-29T02:51:35.669Z,75.50
2023-01-29T02:57:53.049Z,75.41
2023-01-29T03:00:28.266Z,75.83
2023-01-29T03:03:34.937Z,76.06
2023-01-29T03:06:18.458Z,75.39
2023-01-29T03:08:56.285Z,75.78
2023-01-29T03:11:35.698Z,75.47
2023-01-29T03:15:08.075Z,75.43
2023-01-29T03:18:09.996Z,75.64
2023-01-29T03:21:29.525Z,75.50
2023-01-29T03:28:22.982Z,75.63
2023-01-29T03:31:35.247Z,76.00
2023-01-29T03:34:47.488Z,76.57
2023-01-29T03:37:35.704Z,76.35
2023-01-29T03:41:05.409Z,76.20
2023-01-29T03:44:00.262Z,76.35
2023-01-29T03:47:07.428Z,76.13
2023-01-29T03:50:14.908Z,76.45
2023-01-29T03:53:00.202Z,76.39
2023-01-29T03:59:35.761Z,76.30
2023-01-29T04:02:28.030Z,76.03
2023-01-29T04:05:02.076Z,76.73
2023-01-29T04:07:36.743Z,76.36
2023-01-29T04:10:09.877Z,76.29
2023-01-29T04:12:43.157Z,76.28
2023-01-29T04:15:15.340Z,76.27
2023-01-29T04:17:52.764Z,75.65
2023-01-29T04:20:20.871Z,76.91
2023-01-29T04:22:49.744Z,75.64
2023-01-29T04:25:26.591Z,76.18
2023-01-29T04:28:13.762Z,76.60
2023-01-29T04:30:52.909Z,76.25
2023-01-29T04:33:44.122Z,77.16
2023-01-29T04:36:34.540Z,75.92
2023-01-29T04:39:07.302Z,76.11
2023-01-29T04:41:57.140Z,77.04
2023-01-29T04:44:31.547Z,76.33
2023-01-29T04:47:08.907Z,76.04
2023-01-29T04:49:59.132Z,76.55
2023-01-29T04:52:34.945Z,77.25
2023-01-29T04:55:17.701Z,77.21
2023-01-29T04:58:06.688Z,76.53
2023-01-29T05:00:38.605Z,77.06
2023-01-29T05:03:06.497Z,76.52
2023-01-29T05:05:33.266Z,76.50
2023-01-29T05:08:01.753Z,76.92
2023-01-29T05:10:29.395Z,76.52
2023-01-29T05:13:01.581Z,76.29
2023-01-29T05:15:40.809Z,76.87
2023-01-29T05:18:09.204Z,76.84
2023-01-29T05:20:41.912Z,76.70
2023-01-29T05:23:20.255Z,77.41
2023-01-29T05:25:48.135Z,76.93
2023-01-29T05:28:17.562Z,77.13
2023-01-29T05:30:46.996Z,77.14
2023-01-29T05:33:29.497Z,77.77
2023-01-29T05:35:58.255Z,77.00
2023-01-29T05:38:25.782Z,76.53
2023-01-29T05:40:52.308Z,77.01
2023-01-29T05:43:21.551Z,77.49
2023-01-29T05:45:56.754Z,76.79
2023-01-29T05:48:23.934Z,77.23
2023-01-29T05:50:53.175Z,77.63
2023-01-29T05:53:19.792Z,77.71
2023-01-29T05:55:50.520Z,77.42
2023-01-29T05:58:19.726Z,77.38
2023-01-29T06:00:46.654Z,76.65
2023-01-29T06:03:13.284Z,77.09
2023-01-29T06:05:40.548Z,77.79
2023-01-29T06:08:08.382Z,76.78
2023-01-29T06:10:35.196Z,76.83
2023-01-29T06:13:01.833Z,77.21
2023-01-29T06:15:28.440Z,77.51
2023-01-29T06:17:55.459Z,77.27
2023-01-29T06:20:25.387Z,76.82
2023-01-29T06:22:52.130Z,76.81
2023-01-29T06:25:18.796Z,77.38
2023-01-29T06:27:45.400Z,76.98
2023-01-29T06:30:15.921Z,77.34
2023-01-29T06:32:46.600Z,76.89
2023-01-29T06:35:15.777Z,77.17
2023-01-29T06:37:42.350Z,77.54
2023-01-29T06:40:09.720Z,77.30
2023-01-29T06:42:36.401Z,77.61
2023-01-29T06:45:03.177Z,77.30
2023-01-29T06:47:29.761Z,77.63
2023-01-29T06:49:59.032Z,77.09
2023-01-29T06:52:31.660Z,77.22
2023-01-29T06:54:58.192Z,77.20
2023-01-29T06:57:33.785Z,76.70
2023-01-29T07:00:00.577Z,77.12
2023-01-29T07:02:34.423Z,76.89
2023-01-29T07:05:03.912Z,77.02
2023-01-29T07:07:30.469Z,77.28
2023-01-29T07:09:57.044Z,77.05
2023-01-29T07:12:23.750Z,76.81
2023-01-29T07:15:22.863Z,76.97
2023-01-29T07:18:08.222Z,77.07
2023-01-29T07:20:41.904Z,76.44
2023-01-29T07:23:19.870Z,77.19
2023-01-29T07:25:46.775Z,76.16
2023-01-29T07:28:26.600Z,76.88
2023-01-29T07:31:02.327Z,76.37
2023-01-29T07:33:35.141Z,76.50
2023-01-29T07:36:04.348Z,76.21
2023-01-29T07:38:38.347Z,76.58
2023-01-29T07:41:10.623Z,76.79
2023-01-29T07:43:42.476Z,77.30
2023-01-29T07:46:13.343Z,77.29
2023-01-29T07:48:39.930Z,77.45
2023-01-29T07:51:06.583Z,77.26
2023-01-29T07:53:33.249Z,77.21
2023-01-29T07:56:02.895Z,76.93
2023-01-29T07:58:29.606Z,77.04
2023-01-29T08:01:01.523Z,77.15
2023-01-29T08:03:39.397Z,77.47
2023-01-29T08:06:06.521Z,76.99
2023-01-29T08:08:37.598Z,77.37
2023-01-29T08:11:05.749Z,77.26
2023-01-29T08:13:33.193Z,78.08
2023-01-29T08:16:04.354Z,76.78
2023-01-29T08:18:33.847Z,77.43
2023-01-29T08:21:04.142Z,77.11
2023-01-29T08:23:30.859Z,77.69
2023-01-29T08:25:57.580Z,77.46
2023-01-29T08:28:28.655Z,77.25
2023-01-29T08:31:02.006Z,77.02
2023-01-29T08:33:38.980Z,77.22
2023-01-29T08:36:06.781Z,77.25
2023-01-29T08:38:33.504Z,77.63
2023-01-29T08:41:00.288Z,77.14
2023-01-29T08:43:29.091Z,78.04
2023-01-29T08:45:57.868Z,76.98
2023-01-29T08:48:25.481Z,76.97
2023-01-29T08:50:52.286Z,77.85
2023-01-29T08:53:27.878Z,78.40
2023-01-29T08:55:54.832Z,77.43
2023-01-29T08:58:51.583Z,77.31
2023-01-29T09:01:20.518Z,77.57
2023-01-29T09:03:47.155Z,77.77
2023-01-29T09:06:14.860Z,78.01
2023-01-29T09:08:42.106Z,78.14
2023-01-29T09:11:09.179Z,77.53
2023-01-29T09:13:36.273Z,78.05
2023-01-29T09:16:04.259Z,77.80
2023-01-29T09:18:33.068Z,77.70
2023-01-29T09:21:02.827Z,78.20
2023-01-29T09:23:30.904Z,77.81
2023-01-29T09:25:59.641Z,77.85
2023-01-29T09:28:29.054Z,77.53
2023-01-29T09:32:10.725Z,77.52
2023-01-29T09:35:30.858Z,78.20
2023-01-29T09:37:54.391Z,77.13
2023-01-29T09:40:29.988Z,77.53
2023-01-29T09:43:25.757Z,77.68
2023-01-29T09:46:18.140Z,76.92
2023-01-29T09:51:56.559Z,77.53
2023-01-29T09:54:46.574Z,77.42
2023-01-29T09:57:25.383Z,77.46
2023-01-29T09:59:53.609Z,77.20
2023-01-29T10:06:00.489Z,77.94
2023-01-29T10:08:53.770Z,77.07
2023-01-29T10:11:38.086Z,77.42
2023-01-29T10:14:17.257Z,78.02
2023-01-29T10:17:18.423Z,77.63
2023-01-29T10:19:58.100Z,78.53
2023-01-29T10:23:00.310Z,78.16
2023-01-29T10:25:31.394Z,78.44
2023-01-29T10:28:03.539Z,77.53
2023-01-29T10:30:38.686Z,78.03
2023-01-29T10:33:48.721Z,78.91
2023-01-29T10:36:47.036Z,78.41
2023-01-29T10:39:21.479Z,78.41
2023-01-29T10:42:20.759Z,77.86
2023-01-29T10:45:16.935Z,78.41
2023-01-29T10:48:26.364Z,78.33
2023-01-29T10:50:57.945Z,78.04
2023-01-29T10:54:02.358Z,78.47
2023-01-29T10:56:41.948Z,77.83
2023-01-29T10:59:36.878Z,78.62
2023-01-29T11:02:17.945Z,77.33
2023-01-29T11:04:47.713Z,77.63
2023-01-29T11:07:18.035Z,77.99
2023-01-29T11:10:12.193Z,78.61
2023-01-29T11:12:39.813Z,77.71
2023-01-29T11:15:19.324Z,78.10
2023-01-29T11:18:06.985Z,76.57
2023-01-29T11:20:36.864Z,77.32
2023-01-29T11:23:03.986Z,77.52
2023-01-29T11:25:35.513Z,77.65
2023-01-29T11:28:03.228Z,77.10
2023-01-29T11:30:37.654Z,78.59
2023-01-29T11:33:09.086Z,77.52
2023-01-29T11:35:36.893Z,78.09
2023-01-29T11:38:30.055Z,79.00
2023-01-29T11:41:22.542Z,78.67
2023-01-29T11:43:51.645Z,78.67
2023-01-29T11:46:18.684Z,78.05
2023-01-29T11:48:50.360Z,78.67
2023-01-29T11:51:40.182Z,79.58
2023-01-29T11:54:16.384Z,78.97
2023-01-29T11:56:46.225Z,79.41
2023-01-29T11:59:44.490Z,80.21
2023-01-29T12:02:28.619Z,79.61
2023-01-29T12:05:03.858Z,78.91
2023-01-29T12:07:31.757Z,78.37
2023-01-29T12:10:00.280Z,79.14
2023-01-29T12:12:29.227Z,78.57
2023-01-29T12:15:08.888Z,80.04
2023-01-29T12:17:39.470Z,80.94
2023-01-29T12:20:21.142Z,79.29
2023-01-29T12:22:51.782Z,80.32
2023-01-29T12:25:31.608Z,79.31
2023-01-29T12:28:09.741Z,81.27
2023-01-29T12:30:44.950Z,78.92
2023-01-29T12:33:35.162Z,79.82
2023-01-29T12:36:19.740Z,79.34
2023-01-29T12:38:55.144Z,78.55
2023-01-29T12:41:39.953Z,79.52
2023-01-29T12:44:48.239Z,79.17
2023-01-29T12:47:25.920Z,79.31
2023-01-29T12:49:57.418Z,78.78
2023-01-29T12:52:45.112Z,78.16
2023-01-29T12:55:27.283Z,79.07
2023-01-29T12:58:06.484Z,77.65
2023-01-29T13:00:38.667Z,78.48
2023-01-29T13:03:24.222Z,78.70
2023-01-29T13:05:58.376Z,78.08
2023-01-29T13:08:39.603Z,77.88
2023-01-29T13:11:22.385Z,78.49
2023-01-29T13:13:54.616Z,79.06
2023-01-29T13:16:38.532Z,78.20
2023-01-29T13:19:06.600Z,77.92
2023-01-29T13:21:54.627Z,78.49
2023-01-29T13:24:25.543Z,77.08
2023-01-29T13:26:52.574Z,77.54
2023-01-29T13:29:31.072Z,78.59
2023-01-29T13:32:03.737Z,78.22
2023-01-29T13:34:52.865Z,78.13
2023-01-29T13:37:35.508Z,77.55
2023-01-29T13:40:05.805Z,78.01
2023-01-29T13:42:41.042Z,77.37
2023-01-29T13:45:23.219Z,78.34
2023-01-29T13:47:51.749Z,77.88
2023-01-29T13:50:37.386Z,77.70
2023-01-29T13:53:09.875Z,77.37
2023-01-29T13:55:43.665Z,77.86
2023-01-29T13:58:20.284Z,77.12
2023-01-29T14:00:51.270Z,77.64
2023-01-29T14:03:17.948Z,77.26
2023-01-29T14:05:58.139Z,78.03
2023-01-29T14:08:44.397Z,78.16
2023-01-29T14:11:16.875Z,76.90
2023-01-29T14:13:48.542Z,77.12
2023-01-29T14:16:15.348Z,77.49
2023-01-29T14:18:55.651Z,77.26
2023-01-29T14:21:31.936Z,77.56
2023-01-29T14:24:19.712Z,79.38
2023-01-29T14:26:49.534Z,78.39
2023-01-29T14:29:29.056Z,78.21
2023-01-29T14:32:06.938Z,77.72
2023-01-29T14:34:44.931Z,78.67
2023-01-29T14:37:21.411Z,79.59
2023-01-29T14:39:53.079Z,78.93
2023-01-29T14:42:23.061Z,77.85
2023-01-29T14:44:55.870Z,78.91
2023-01-29T14:47:43.469Z,78.33
2023-01-29T14:50:18.834Z,78.34
2023-01-29T14:52:48.259Z,78.35
2023-01-29T14:55:40.815Z,78.26
2023-01-29T14:58:14.625Z,78.73
2023-01-29T15:00:45.179Z,77.96
2023-01-29T15:03:39.708Z,79.67
2023-01-29T15:06:09.805Z,78.03
2023-01-29T15:08:43.879Z,79.12
2023-01-29T15:11:51.655Z,78.13
2023-01-29T15:14:28.819Z,78.26
2023-01-29T15:17:23.673Z,79.16
2023-01-29T15:19:50.315Z,78.59
2023-01-29T15:22:22.007Z,78.90
2023-01-29T15:25:04.877Z,78.16
2023-01-29T15:27:32.300Z,78.24
2023-01-29T15:30:06.178Z,79.16
2023-01-29T15:32:36.024Z,78.85
2023-01-29T15:35:09.203Z,78.19
2023-01-29T15:37:37.023Z,78.80
2023-01-29T15:40:14.834Z,78.03
2023-01-29T15:42:48.633Z,78.71
2023-01-29T15:45:31.104Z,79.20
2023-01-29T15:48:05.702Z,78.99
2023-01-29T15:50:36.968Z,78.39
2023-01-29T15:53:08.134Z,79.34
2023-01-29T15:55:36.128Z,78.94
2023-01-29T15:58:03.098Z,79.12
2023-01-29T16:00:30.635Z,79.21
2023-01-29T16:02:58.496Z,81.09
2023-01-29T16:05:30.984Z,79.22
2023-01-29T16:07:57.987Z,80.16
2023-01-29T16:10:27.985Z,79.16
2023-01-29T16:12:57.846Z,79.67
2023-01-29T16:15:32.877Z,79.80
2023-01-29T16:18:04.474Z,79.81
2023-01-29T16:20:41.501Z,80.40
2023-01-29T16:23:16.875Z,80.02
2023-01-29T16:25:44.078Z,79.81
2023-01-29T16:28:11.452Z,79.52
2023-01-29T16:30:38.857Z,79.83
2023-01-29T16:33:07.944Z,80.23
2023-01-29T16:35:35.935Z,79.90
2023-01-29T16:38:14.645Z,82.17
2023-01-29T16:41:11.306Z,80.68
2023-01-29T16:43:50.374Z,80.45
2023-01-29T16:46:26.006Z,80.51
2023-01-29T16:48:53.792Z,80.38
2023-01-29T16:51:28.446Z,81.79
2023-01-29T16:54:07.448Z,81.48
2023-01-29T16:56:35.245Z,80.88
2023-01-29T16:59:05.907Z,80.09
2023-01-29T17:01:36.035Z,82.16
2023-01-29T17:04:10.245Z,80.43
2023-01-29T17:06:40.059Z,83.26
2023-01-29T17:09:07.608Z,81.76
2023-01-29T17:11:43.762Z,81.11
2023-01-29T17:14:19.335Z,82.49
2023-01-29T17:16:53.325Z,81.50
2023-01-29T17:19:20.745Z,80.53
2023-01-29T17:21:47.881Z,80.76
2023-01-29T17:24:14.563Z,81.50
2023-01-29T17:26:41.436Z,80.01
2023-01-29T17:29:15.579Z,81.31
2023-01-29T17:31:43.249Z,81.15
2023-01-29T17:34:14.696Z,80.88
2023-01-29T17:36:43.341Z,81.17
2023-01-29T17:39:21.144Z,80.55
2023-01-29T17:41:51.084Z,80.68
2023-01-29T17:44:18.477Z,79.71
2023-01-29T17:46:46.199Z,80.08
2023-01-29T17:49:30.036Z,79.42
2023-01-29T17:51:57.358Z,79.46
2023-01-29T17:54:25.554Z,79.01
2023-01-29T17:56:53.424Z,79.80
2023-01-29T17:59:23.503Z,78.87
2023-01-29T18:01:51.390Z,78.56
2023-01-29T18:04:18.118Z,79.49
2023-01-29T18:06:50.901Z,80.05
2023-01-29T18:09:22.985Z,79.39
2023-01-29T18:11:50.927Z,79.49
2023-01-29T18:14:18.183Z,79.28
2023-01-29T18:16:45.213Z,79.17
2023-01-29T18:19:17.030Z,79.35
2023-01-29T18:21:43.604Z,79.43
2023-01-29T18:24:12.277Z,79.14
2023-01-29T18:26:38.807Z,78.77
2023-01-29T18:29:05.702Z,78.26
2023-01-29T18:31:32.497Z,78.36
2023-01-29T18:33:59.067Z,79.35
2023-01-29T18:36:25.847Z,78.52
2023-01-29T18:38:52.470Z,79.19
2023-01-29T18:41:19.346Z,79.58
2023-01-29T18:43:45.948Z,79.36
2023-01-29T18:46:12.574Z,78.89
2023-01-29T18:48:41.573Z,78.42
2023-01-29T18:51:08.912Z,78.90
2023-01-29T18:53:35.473Z,79.29
2023-01-29T18:56:05.119Z,79.14
2023-01-29T18:58:36.697Z,78.56
2023-01-29T19:01:11.647Z,80.37
2023-01-29T19:03:39.454Z,78.94
2023-01-29T19:06:08.932Z,79.61
2023-01-29T19:08:36.153Z,80.03
2023-01-29T19:11:05.572Z,79.68
2023-01-29T19:13:32.439Z,80.34
2023-01-29T19:15:59.119Z,79.45
2023-01-29T19:18:26.616Z,79.58
2023-01-29T19:20:54.192Z,79.53
2023-01-29T19:23:21.640Z,79.44
2023-01-29T19:25:51.158Z,79.56
2023-01-29T19:28:17.745Z,79.44
2023-01-29T19:30:44.346Z,80.05
2023-01-29T19:33:11.228Z,79.34
2023-01-29T19:35:37.832Z,79.01
2023-01-29T19:38:05.034Z,78.98
2023-01-29T19:40:31.659Z,79.34
2023-01-29T19:42:58.814Z,78.74
2023-01-29T19:45:49.928Z,78.94
2023-01-29T19:48:14.649Z,79.43
2023-01-29T19:50:42.412Z,78.76
2023-01-29T19:53:09.107Z,78.92
2023-01-29T19:55:35.713Z,78.49
2023-01-29T19:58:03.558Z,79.09
2023-01-29T20:00:30.610Z,78.43
2023-01-29T20:02:57.248Z,79.11
2023-01-29T20:05:24.144Z,78.56
2023-01-29T20:07:54.026Z,79.03
2023-01-29T20:10:20.882Z,77.70
2023-01-29T20:12:47.642Z,79.03
2023-01-29T20:15:15.260Z,78.81
2023-01-29T20:17:41.992Z,79.27
2023-01-29T20:20:11.524Z,78.76
2023-01-29T20:22:38.067Z,78.23
2023-01-29T20:25:04.805Z,78.22
2023-01-29T20:27:31.290Z,78.45
2023-01-29T20:30:00.021Z,78.56
2023-01-29T20:32:26.618Z,79.42
2023-01-29T20:34:53.131Z,78.72
2023-01-29T20:37:19.850Z,78.79
2023-01-29T20:39:46.660Z,78.97
2023-01-29T20:42:13.435Z,78.83
2023-01-29T20:44:39.935Z,78.97
2023-01-29T20:47:06.513Z,78.82
2023-01-29T20:49:33.017Z,78.88
2023-01-29T20:51:59.590Z,79.33
2023-01-29T20:54:26.281Z,79.12
2023-01-29T20:56:53.005Z,78.92
2023-01-29T20:59:19.957Z,79.87
2023-01-29T21:01:46.782Z,79.42
2023-01-29T21:04:13.426Z,79.30
2023-01-29T21:06:40.064Z,80.11
2023-01-29T21:09:06.690Z,80.17
2023-01-29T21:11:33.725Z,79.53
2023-01-29T21:14:02.001Z,79.45
2023-01-29T21:16:29.057Z,79.43
2023-01-29T21:18:57.018Z,79.74
2023-01-29T21:21:24.100Z,79.97
2023-01-29T21:23:50.703Z,79.94
2023-01-29T21:26:17.212Z,79.96
2023-01-29T21:28:43.871Z,80.49
2023-01-29T21:31:12.223Z,79.92
2023-01-29T21:33:38.874Z,80.42
2023-01-29T21:36:06.523Z,80.22
2023-01-29T21:38:33.240Z,80.46
2023-01-29T21:41:05.075Z,81.04
2023-01-29T21:43:31.698Z,80.55
2023-01-29T21:46:00.268Z,80.61
2023-01-29T21:48:27.125Z,80.84
2023-01-29T21:50:53.843Z,81.12
2023-01-29T21:53:20.705Z,81.59
2023-01-29T21:55:47.489Z,80.65
2023-01-29T21:58:14.703Z,81.13
2023-01-29T22:00:41.512Z,81.23
2023-01-29T22:03:08.354Z,81.01
2023-01-29T22:05:35.365Z,80.79
2023-01-29T22:08:02.490Z,81.50
2023-01-29T22:10:30.552Z,81.17
2023-01-29T22:12:59.794Z,80.89
2023-01-29T22:15:26.350Z,80.78
2023-01-29T22:17:53.451Z,80.64
2023-01-29T22:20:20.331Z,80.72
2023-01-29T22:22:47.024Z,80.77
2023-01-29T22:25:13.538Z,81.18
2023-01-29T22:27:40.369Z,83.21
2023-01-29T22:30:07.697Z,82.35
2023-01-29T22:32:34.585Z,81.69
2023-01-29T22:35:01.184Z,81.61
2023-01-29T22:37:27.886Z,82.11
2023-01-29T22:39:54.484Z,81.58
2023-01-29T22:42:21.150Z,81.12
2023-01-29T22:44:48.602Z,81.65
2023-01-29T22:47:15.676Z,81.54
2023-01-29T22:49:44.521Z,81.01
2023-01-29T22:52:11.512Z,80.87
2023-01-29T22:54:43.038Z,81.67
2023-01-29T22:57:11.246Z,82.96
2023-01-29T22:59:38.571Z,81.87
2023-01-29T23:02:07.309Z,81.47
2023-01-29T23:04:34.086Z,82.03
2023-01-29T23:07:00.779Z,82.03
2023-01-29T23:09:27.396Z,81.83
2023-01-29T23:11:53.990Z,81.54
2023-01-29T23:14:20.561Z,82.14
2023-01-29T23:16:47.329Z,81.37
2023-01-29T23:19:13.933Z,81.56
2023-01-29T23:21:40.496Z,81.87
2023-01-29T23:24:08.301Z,82.01
2023-01-29T23:26:54.061Z,81.74
2023-01-29T23:29:20.946Z,82.04
2023-01-29T23:31:47.656Z,82.15
2023-01-29T23:34:15.098Z,82.74
2023-01-29T23:36:42.263Z,84.04
2023-01-29T23:39:08.817Z,82.28
2023-01-29T23:41:35.423Z,82.69
2023-01-29T23:44:02.004Z,82.47
2023-01-29T23:46:28.646Z,82.26
2023-01-29T23:48:55.234Z,82.47
2023-01-29T23:51:21.822Z,82.41
2023-01-29T23:53:48.307Z,82.36
2023-01-29T23:56:14.923Z,84.44
2023-01-29T23:58:41.503Z,83.46
